You are not logged in, Click here to log in
機場資訊:RJTT Welcome to Taiwan Airways 台灣虛擬航空
ICAO: RJTT Country: 日本東京都大田區
Latitude: 35.5494 Longitude: 139.78
Total Arrivals: 109 Total Departures: 116
Latest Arrival: NH100 (RJBB-RJTT)LI WEN. Tu Latest Departure: HD4720 (RJTT-RJCC)LI WEN. Tu
Scenery: http://forums.x-plane.org/index.php?/files/file/37241-rjtt-tokyo-haneda-airport/
METAR : RJTT 170500Z 35011KT 9999 FEW030 SCT/// 19/07 Q1020 NOSIG RMK 1CU030 A3014

東京国際空港(羽田)HND